page 5022 of 1009802 registered users

eBook PostsUsers

  1. 0group5pint registered @ 2012-12-20 16:39:08, last login @ 2012-12-20 16:39:08
  2. 0animal73tights registered @ 2012-12-20 16:39:15, last login @ 2012-12-20 16:39:15
  3. 0notify3chess registered @ 2012-12-20 16:39:19, last login @ 2012-12-20 16:39:19
  4. 0appealsinger1 registered @ 2012-12-20 16:42:33, last login @ 2012-12-20 16:42:33
  5. 0actor1router registered @ 2012-12-20 16:42:41, last login @ 2012-12-20 16:42:41
  6. 0bayteeth1 registered @ 2012-12-20 16:43:12, last login @ 2012-12-20 16:43:12
  7. 0panty5mark registered @ 2012-12-20 16:43:35, last login @ 2012-12-20 16:43:35
  8. 0ehabdiab registered @ 2012-12-20 16:43:46, last login @ 2012-12-20 16:43:46
  9. 0Louwtoole registered @ 2012-12-20 16:43:51, last login @ 2012-12-20 16:43:51
  10. 0draw33tights registered @ 2012-12-20 16:44:44, last login @ 2012-12-20 16:44:44
  11. 0Nkpharmaind1 registered @ 2012-12-20 16:44:51, last login @ 2012-12-20 16:44:51
  12. 0carbonlamp40 registered @ 2012-12-20 16:45:59, last login @ 2012-12-20 16:45:59
  13. 0pdn1oxk9d registered @ 2012-12-20 16:46:14, last login @ 2012-12-20 16:46:14
  14. 0napkinchild7 registered @ 2012-12-20 16:48:58, last login @ 2012-12-20 16:48:58
  15. 0shop4slip registered @ 2012-12-20 16:50:19, last login @ 2012-12-20 16:50:19
  16. 0step87page registered @ 2012-12-20 16:51:17, last login @ 2012-12-20 16:51:17
  17. 0space11africa registered @ 2012-12-20 16:51:22, last login @ 2012-12-20 16:51:22
  18. 0trip83slope registered @ 2012-12-20 16:52:17, last login @ 2012-12-20 16:52:17
  19. 0trunk97oboe registered @ 2012-12-20 16:52:21, last login @ 2012-12-20 16:52:21
  20. 0bar5way registered @ 2012-12-20 16:54:29, last login @ 2012-12-20 16:54:29
  21. 0tire82sugar registered @ 2012-12-20 16:56:13, last login @ 2012-12-20 16:56:13
  22. 0quailpansy22 registered @ 2012-12-20 16:56:19, last login @ 2012-12-20 16:56:19
  23. 0bottom10crib registered @ 2012-12-20 16:56:47, last login @ 2012-12-20 16:56:47
  24. 0repairhelp40 registered @ 2012-12-20 16:56:56, last login @ 2012-12-20 16:56:56
  25. 0pvc54pilot registered @ 2012-12-20 16:57:03, last login @ 2012-12-20 16:57:03
  26. 0season25radish registered @ 2012-12-20 16:57:03, last login @ 2012-12-20 16:57:03
  27. 0trailsphynx93 registered @ 2012-12-20 16:57:42, last login @ 2012-12-20 16:57:42
  28. 0sheepminute59 registered @ 2012-12-20 16:57:50, last login @ 2012-12-20 16:57:50
  29. 0volkmanbilly47 registered @ 2012-12-20 16:57:54, last login @ 2012-12-20 16:57:54
  30. 0zyn789 registered @ 2012-12-20 16:58:59, last login @ 2012-12-20 16:58:59
  31. 0silver5hand registered @ 2012-12-20 17:02:13, last login @ 2012-12-20 17:02:13
  32. 0sideplace29 registered @ 2012-12-20 17:03:30, last login @ 2012-12-20 17:03:30
  33. 0quill0turtle registered @ 2012-12-20 17:04:24, last login @ 2012-12-20 17:04:24
  34. 0female0cover registered @ 2012-12-20 17:04:48, last login @ 2012-12-20 17:04:48
  35. 0father6sail registered @ 2012-12-20 17:05:04, last login @ 2012-12-20 17:56:34
  36. 0Thobekani registered @ 2012-12-20 17:06:06, last login @ 2012-12-20 17:06:06
  37. 0single06pants registered @ 2012-12-20 17:08:03, last login @ 2012-12-20 17:08:03
  38. 0mariagallon7 registered @ 2012-12-20 17:08:03, last login @ 2012-12-20 17:08:03
  39. 0grainswitch9 registered @ 2012-12-20 17:08:24, last login @ 2012-12-20 17:08:24
  40. 0tower43hole registered @ 2012-12-20 17:08:37, last login @ 2012-12-20 17:21:43
  41. 0kaleturnip43 registered @ 2012-12-20 17:10:52, last login @ 2012-12-20 17:10:52
  42. 0Eszter registered @ 2012-12-20 17:11:42, last login @ 2012-12-20 17:11:42
  43. 0bqclym65 registered @ 2012-12-20 17:12:10, last login @ 2012-12-20 17:12:10
  44. 0gezayqjqu registered @ 2012-12-20 17:12:21, last login @ 2012-12-20 17:12:21
  45. 0pawankumarsinghtech registered @ 2012-12-20 17:12:38, last login @ 2012-12-20 17:12:38
  46. 0pine3chin registered @ 2012-12-20 17:14:44, last login @ 2012-12-20 17:14:44
  47. 0bottom07part registered @ 2012-12-20 17:15:45, last login @ 2012-12-20 17:15:45
  48. 0field77fridge registered @ 2012-12-20 17:16:11, last login @ 2012-12-20 17:58:43
  49. 0turnippower21 registered @ 2012-12-20 17:19:58, last login @ 2012-12-20 17:19:58
  50. 0temple4letter registered @ 2012-12-20 17:19:59, last login @ 2012-12-20 17:19:59
  51. 0beannumber62 registered @ 2012-12-20 17:20:31, last login @ 2012-12-20 17:20:31
  52. 0laugh46puffin registered @ 2012-12-20 17:21:43, last login @ 2012-12-20 17:21:43
  53. 0gardenwound6 registered @ 2012-12-20 17:22:41, last login @ 2012-12-20 17:22:41
  54. 0collar2knight registered @ 2012-12-20 17:22:54, last login @ 2012-12-20 17:22:54
  55. 0dream61gram registered @ 2012-12-20 17:23:52, last login @ 2012-12-20 17:23:52
  56. 0bathmark09 registered @ 2012-12-20 17:23:56, last login @ 2012-12-20 17:23:56
  57. 0pinkdoctor0 registered @ 2012-12-20 17:24:43, last login @ 2012-12-20 17:24:43
  58. 0shoechina1 registered @ 2012-12-20 17:25:18, last login @ 2012-12-20 17:25:18
  59. 0Trend registered @ 2012-12-20 17:25:51, last login @ 2012-12-20 17:45:15
  60. 0fir8oval registered @ 2012-12-20 17:26:25, last login @ 2012-12-20 17:26:25
  61. 0letterdrug9 registered @ 2012-12-20 17:27:00, last login @ 2012-12-20 17:27:00
  62. 0zonearch46 registered @ 2012-12-20 17:27:35, last login @ 2012-12-20 17:27:35
  63. 0lacebank3 registered @ 2012-12-20 17:28:10, last login @ 2012-12-20 17:28:10
  64. 0vaelin registered @ 2012-12-20 17:28:59, last login @ 2012-12-20 17:28:59
  65. 0groundease2 registered @ 2012-12-20 17:29:08, last login @ 2012-12-20 17:29:08
  66. 0yogi123 registered @ 2012-12-20 17:30:41, last login @ 2012-12-20 17:30:41
  67. 0badge7output registered @ 2012-12-20 17:31:07, last login @ 2012-12-20 17:31:07
  68. 0frownlung14 registered @ 2012-12-20 17:31:14, last login @ 2012-12-20 17:57:37
  69. 0janturk99 registered @ 2012-12-20 17:33:26, last login @ 2012-12-20 17:33:26
  70. 0tyvek8plate registered @ 2012-12-20 17:33:43, last login @ 2012-12-20 17:33:43
  71. 0iraqyew8 registered @ 2012-12-20 17:33:53, last login @ 2012-12-20 17:33:53
  72. 0wolflamb6 registered @ 2012-12-20 17:35:26, last login @ 2012-12-20 17:35:26
  73. 0cello5inch registered @ 2012-12-20 17:38:25, last login @ 2012-12-20 17:38:25
  74. 0dewtower4 registered @ 2012-12-20 17:39:58, last login @ 2012-12-20 17:39:58
  75. 0stringviolet0 registered @ 2012-12-20 17:43:16, last login @ 2012-12-20 17:43:16
  76. 0drinkscale25 registered @ 2012-12-20 17:45:00, last login @ 2012-12-20 17:45:00
  77. 0badgeoutput54 registered @ 2012-12-20 17:45:57, last login @ 2012-12-20 17:45:57
  78. 0dona78saab registered @ 2012-12-20 17:45:58, last login @ 2012-12-20 17:45:58
  79. 0soncouch5 registered @ 2012-12-20 17:46:41, last login @ 2012-12-20 17:46:41
  80. 0pianotaste2 registered @ 2012-12-20 17:47:41, last login @ 2012-12-20 17:47:41
  81. 0fold7dock registered @ 2012-12-20 17:49:03, last login @ 2012-12-20 17:49:03
  82. 0guiltybonsai45 registered @ 2012-12-20 17:52:45, last login @ 2012-12-20 17:52:45
  83. 0crytin67 registered @ 2012-12-20 17:54:12, last login @ 2012-12-20 17:54:12
  84. 0seat50anime registered @ 2012-12-20 17:54:27, last login @ 2012-12-20 17:54:27
  85. 0woolen7drink registered @ 2012-12-20 17:55:16, last login @ 2012-12-20 17:55:16
  86. 0black8butter registered @ 2012-12-20 17:56:44, last login @ 2012-12-20 17:56:44
  87. 0home9kite registered @ 2012-12-20 17:57:03, last login @ 2012-12-20 17:57:03
  88. 0steam75twig registered @ 2012-12-20 18:00:40, last login @ 2012-12-20 18:00:40
  89. 0cubcopy76 registered @ 2012-12-20 18:01:34, last login @ 2012-12-20 18:01:34
  90. 0cast76woolen registered @ 2012-12-20 18:02:28, last login @ 2012-12-20 18:02:28
  91. 0peenturkey58 registered @ 2012-12-20 18:02:35, last login @ 2012-12-20 18:02:35
  92. 0dockplate78 registered @ 2012-12-20 18:02:42, last login @ 2012-12-20 18:02:42
  93. 0paper11twist registered @ 2012-12-20 18:03:24, last login @ 2012-12-20 18:03:24
  94. 0party8claus registered @ 2012-12-20 18:03:33, last login @ 2012-12-20 18:03:33
  95. 0alvaro71 registered @ 2012-12-20 18:04:53, last login @ 2012-12-20 18:04:53
  96. 0bsjgvtigx registered @ 2012-12-20 18:05:01, last login @ 2012-12-20 18:05:01
  97. 0pot9cast registered @ 2012-12-20 18:05:10, last login @ 2012-12-20 18:05:10
  98. 0hub1men registered @ 2012-12-20 18:05:46, last login @ 2012-12-20 18:05:46
  99. 0indexcity54 registered @ 2012-12-20 18:06:54, last login @ 2012-12-20 18:06:54
  100. 0alvaro1971 registered @ 2012-12-20 18:07:26, last login @ 2012-12-20 18:10:51
  101. 0weasel97smoke registered @ 2012-12-20 18:08:16, last login @ 2012-12-20 18:08:16

More...

[5032] [5031] [5030] [5029] [5028] [5027] [5026] [5025] [5024] [5023] [5022] [5021] [5020] [5019] [5018] [5017] [5016] [5015] [5014] [5013] ...[1]
Back to Top